Time;durP1;ratioP1;P1;durP2;ratioP2;P2;SDS_P1;SDS_P2;PMS_P1;PMS_P2;Temp;Humidity;BMP_temperature;BMP_pressure;BME280_temperature;BME280_humidity;BME280_pressure;Samples;Min_cycle;Max_cycle;Signal;HPM_P1;HPM_P2
2022/03/19 00:00:28;;;;;;;;;10.25;9.00;;;;;8.55;85.08;104457.00;5070441;28;10735;-69
2022/03/19 00:02:55;;;;;;;;;7.75;7.75;;;;;8.59;84.58;104458.56;5060337;28;10595;-70
2022/03/19 00:05:21;;;;;;;;;6.25;6.25;;;;;8.46;84.80;104459.38;5050894;28;10640;-69
2022/03/19 00:07:49;;;;;;;;;8.25;8.00;;;;;8.41;83.93;104465.00;5051577;28;10650;-69
2022/03/19 00:10:16;;;;;;;;;6.00;6.00;;;;;8.42;84.29;104465.88;5050537;28;10883;-70
2022/03/19 00:12:43;;;;;;;;;7.25;6.00;;;;;8.41;83.93;104465.00;5058182;28;11475;-70
2022/03/19 00:15:10;;;;;;;;;4.00;4.00;;;;;8.33;84.20;104454.63;5086168;28;10726;-69
2022/03/19 00:17:38;;;;;;;;;6.75;6.75;;;;;8.35;83.38;104468.03;5063008;28;10709;-69
2022/03/19 00:20:05;;;;;;;;;5.50;5.50;;;;;8.35;82.80;104468.03;5050423;28;10651;-68
2022/03/19 00:22:32;;;;;;;;;4.50;2.00;;;;;8.25;82.95;104464.97;5054719;28;11268;-70
2022/03/19 00:24:59;;;;;;;;;7.00;4.25;;;;;8.30;82.53;104467.41;5070253;28;10848;-69
2022/03/19 00:27:26;;;;;;;;;8.00;7.00;;;;;8.24;81.86;104467.75;5064238;28;11375;-70
2022/03/19 00:29:52;;;;;;;;;7.00;7.00;;;;;8.22;82.33;104467.84;5065545;28;10728;-69
2022/03/19 00:32:19;;;;;;;;;8.25;7.75;;;;;8.22;81.66;104464.28;5054274;28;10724;-69
2022/03/19 00:34:45;;;;;;;;;5.75;5.25;;;;;8.21;80.43;104463.41;5085630;28;10694;-69
2022/03/19 00:37:12;;;;;;;;;6.50;5.50;;;;;8.22;80.53;104462.44;5066294;28;10806;-69
2022/03/19 00:39:38;;;;;;;;;6.75;4.25;;;;;8.16;80.12;104468.16;5050322;28;10667;-69
2022/03/19 00:42:05;;;;;;;;;10.25;7.00;;;;;8.06;79.69;104474.16;5052305;28;10831;-68
2022/03/19 00:44:31;;;;;;;;;5.00;5.00;;;;;8.04;79.48;104471.53;5070687;28;10786;-70
2022/03/19 00:46:58;;;;;;;;;5.00;4.75;;;;;8.08;79.17;104473.09;5067787;28;10584;-69
2022/03/19 00:49:24;;;;;;;;;6.25;5.00;;;;;8.01;78.73;104475.28;5050034;28;10655;-71
2022/03/19 00:51:51;;;;;;;;;3.75;3.75;;;;;8.08;78.59;104474.94;5051477;28;10819;-70
2022/03/19 00:54:17;;;;;;;;;2.25;2.25;;;;;8.14;78.76;104469.19;5070734;28;10657;-70
2022/03/19 00:56:46;;;;;;;;;4.00;4.00;;;;;7.96;78.00;104468.38;5070089;28;10649;-69
2022/03/19 00:59:13;;;;;;;;;8.00;6.00;;;;;7.94;78.16;104475.69;5030144;28;10678;-70
2022/03/19 01:01:39;;;;;;;;;5.25;4.50;;;;;7.96;78.30;104466.56;5030231;28;10750;-70
2022/03/19 01:04:06;;;;;;;;;6.25;4.00;;;;;7.92;77.70;104473.06;5050563;28;10606;-69
2022/03/19 01:06:33;;;;;;;;;4.75;3.50;;;;;8.01;78.22;104469.88;5051276;28;10725;-70
2022/03/19 01:08:59;;;;;;;;;6.50;6.50;;;;;7.87;78.17;104469.72;5069747;28;10733;-70
2022/03/19 01:11:25;;;;;;;;;6.25;6.25;;;;;7.85;76.90;104460.84;5070623;28;10874;-69
2022/03/19 01:13:53;;;;;;;;;5.00;4.00;;;;;7.90;77.34;104455.19;5051677;28;10688;-69
2022/03/19 01:16:19;;;;;;;;;4.00;3.50;;;;;7.79;76.43;104463.00;5050494;28;10767;-70
2022/03/19 01:18:47;;;;;;;;;5.50;4.00;;;;;7.74;76.52;104451.59;5066930;28;10641;-68
2022/03/19 01:21:15;;;;;;;;;6.00;6.00;;;;;7.81;76.60;104456.59;5029685;28;10983;-68
2022/03/19 01:23:42;;;;;;;;;7.50;6.00;;;;;7.81;75.62;104453.88;5062256;28;10939;-69
2022/03/19 01:26:08;;;;;;;;;3.00;3.00;;;;;7.83;76.04;104451.09;5069804;28;10787;-70
2022/03/19 01:28:35;;;;;;;;;6.00;5.00;;;;;7.72;75.98;104452.56;5054425;28;10698;-69
2022/03/19 01:31:02;;;;;;;;;4.50;3.75;;;;;7.66;75.63;104454.69;5048431;28;10878;-69
2022/03/19 01:33:29;;;;;;;;;5.00;5.00;;;;;7.68;75.96;104445.59;5064291;28;10806;-71
2022/03/19 01:35:56;;;;;;;;;9.00;3.50;;;;;7.61;75.42;104445.97;5070290;28;11529;-70
2022/03/19 01:38:22;;;;;;;;;4.50;4.50;;;;;7.66;75.15;104446.59;5056164;28;10847;-71
2022/03/19 01:40:49;;;;;;;;;3.25;3.00;;;;;7.61;75.22;104448.66;5049596;28;10681;-71
2022/03/19 01:43:15;;;;;;;;;3.00;3.00;;;;;7.71;75.01;104445.41;5060589;28;10923;-71
2022/03/19 01:45:41;;;;;;;;;6.00;6.00;;;;;7.73;74.01;104439.94;5069697;28;10970;-70
2022/03/19 01:48:08;;;;;;;;;4.75;4.00;;;;;7.72;73.47;104444.47;5058083;28;10780;-70
2022/03/19 01:50:34;;;;;;;;;4.25;4.00;;;;;7.57;73.41;104433.59;5053252;28;10714;-70
2022/03/19 01:53:01;;;;;;;;;5.25;4.25;;;;;7.58;73.38;104441.63;5063196;28;10933;-71
2022/03/19 01:55:28;;;;;;;;;7.00;7.00;;;;;7.54;73.06;104437.34;5073621;28;10943;-70
2022/03/19 01:57:57;;;;;;;;;4.00;3.00;;;;;7.66;72.82;104433.09;5063290;28;10637;-71
2022/03/19 02:00:25;;;;;;;;;4.00;2.75;;;;;7.55;72.40;104430.13;5053023;28;10636;-72
2022/03/19 02:02:53;;;;;;;;;5.00;2.00;;;;;7.51;73.07;104432.13;5061823;28;10755;-71
2022/03/19 02:05:21;;;;;;;;;2.00;2.00;;;;;7.64;72.21;104427.81;5088285;28;10732;-71
2022/03/19 02:07:49;;;;;;;;;3.25;3.25;;;;;7.55;72.40;104424.72;5063872;28;10809;-71
2022/03/19 02:10:18;;;;;;;;;3.00;2.00;;;;;7.61;72.47;104419.00;5053004;28;10816;-72
2022/03/19 02:12:45;;;;;;;;;2.75;2.25;;;;;7.60;72.19;104419.97;5060538;28;10842;-71
2022/03/19 02:15:14;;;;;;;;;5.25;3.50;;;;;7.47;72.46;104417.06;5071325;28;10729;-71
2022/03/19 02:17:41;;;;;;;;;3.25;3.00;;;;;7.52;72.45;104420.38;5080461;28;10819;-71
2022/03/19 02:20:08;;;;;;;;;2.50;2.50;;;;;7.46;73.09;104412.63;5052572;28;10773;-70
2022/03/19 02:22:35;;;;;;;;;2.75;2.00;;;;;7.49;72.76;104420.53;5058906;28;11584;-70
2022/03/19 02:27:48;;;;;;;;;3.75;3.75;;;;;7.57;72.84;104414.72;5063624;28;11342;-71
2022/03/19 02:30:16;;;;;;;;;3.00;2.00;;;;;7.45;72.55;104412.72;5053637;28;11465;-72
2022/03/19 02:32:44;;;;;;;;;7.75;5.25;;;;;7.31;73.24;104414.28;5058595;28;10858;-71
2022/03/19 02:35:11;;;;;;;;;4.25;2.75;;;;;7.15;73.65;104407.94;5073125;28;10853;-71
2022/03/19 02:37:39;;;;;;;;;2.50;2.50;;;;;7.26;73.99;104419.03;5082565;28;11650;-70
2022/03/19 02:40:10;;;;;;;;;4.50;3.00;;;;;7.29;74.05;104415.31;5053229;28;10674;-71
2022/03/19 02:42:42;;;;;;;;;2.00;1.25;;;;;7.37;73.58;104405.88;5060904;28;10861;-71
2022/03/19 02:45:09;;;;;;;;;5.00;3.25;;;;;7.43;73.34;104401.09;5075296;28;10794;-70
2022/03/19 02:47:57;;;;;;;;;6.50;5.25;;;;;7.35;73.35;104404.22;5066935;28;10587;-70
2022/03/19 02:50:29;;;;;;;;;5.50;5.25;;;;;7.24;73.77;104404.78;5052824;28;10865;-71
2022/03/19 02:52:57;;;;;;;;;4.25;4.00;;;;;7.09;74.14;104394.78;5060418;28;10857;-71
2022/03/19 02:55:24;;;;;;;;;5.75;5.50;;;;;7.07;74.61;104394.00;5070838;28;10829;-71
2022/03/19 02:57:51;;;;;;;;;4.00;1.75;;;;;7.04;73.89;104386.06;5062971;28;10952;-72
2022/03/19 03:00:18;;;;;;;;;3.50;1.50;;;;;7.17;74.33;104387.16;5052941;28;10989;-71
2022/03/19 03:02:45;;;;;;;;;1.00;1.00;;;;;7.17;74.33;104389.00;5061014;28;10665;-71
2022/03/19 03:05:12;;;;;;;;;10.00;4.25;;;;;7.08;73.97;104382.25;5087472;28;10749;-72
2022/03/19 03:07:40;;;;;;;;;5.75;3.50;;;;;6.96;74.81;104375.69;5079588;28;10813;-72
2022/03/19 03:10:07;;;;;;;;;4.00;3.00;;;;;7.11;74.74;104376.72;5051689;28;10996;-72
2022/03/19 03:12:35;;;;;;;;;6.50;3.00;;;;;7.12;74.55;104378.44;5058129;28;10856;-71
2022/03/19 03:15:01;;;;;;;;;1.25;1.25;;;;;7.18;74.79;104382.66;5071863;28;11053;-70
2022/03/19 03:17:28;;;;;;;;;6.00;3.50;;;;;7.05;74.94;104377.91;5066144;28;10895;-72
2022/03/19 03:19:54;;;;;;;;;5.50;4.50;;;;;7.13;74.98;104372.09;5051595;28;10790;-70
2022/03/19 03:22:21;;;;;;;;;7.00;4.50;;;;;7.13;74.93;104380.19;5055728;28;11426;-70
2022/03/19 03:24:47;;;;;;;;;2.50;2.50;;;;;6.99;75.21;104382.75;5087279;28;11498;-70
2022/03/19 03:27:13;;;;;;;;;9.25;4.50;;;;;7.01;75.26;104383.53;5067150;28;11047;-70
2022/03/19 03:29:41;;;;;;;;;6.00;6.00;;;;;7.11;75.34;104368.63;5051320;28;11138;-71
2022/03/19 03:32:09;;;;;;;;;3.50;2.00;;;;;7.09;75.42;104384.00;5053838;28;11023;-71
2022/03/19 03:34:37;;;;;;;;;1.00;1.00;;;;;7.07;75.48;104376.00;5071508;28;10623;-71
2022/03/19 03:37:04;;;;;;;;;1.25;1.25;;;;;7.07;75.37;104389.47;5069558;28;10698;-70
2022/03/19 03:39:31;;;;;;;;;1.00;1.00;;;;;7.10;75.30;104377.66;5057613;28;10782;-71
2022/03/19 03:41:58;;;;;;;;;5.00;2.00;;;;;6.94;75.61;104384.78;5052364;28;10643;-72
2022/03/19 03:44:25;;;;;;;;;4.00;2.00;;;;;7.01;76.02;104380.84;5071140;28;10902;-72
2022/03/19 03:46:51;;;;;;;;;1.50;1.00;;;;;6.98;76.02;104384.56;5085389;28;11020;-71
2022/03/19 03:49:18;;;;;;;;;7.25;5.50;;;;;6.90;76.01;104385.88;5051011;28;10704;-72
2022/03/19 03:51:45;;;;;;;;;4.00;4.00;;;;;6.85;76.29;104387.94;5050448;28;10871;-71
2022/03/19 03:54:11;;;;;;;;;8.25;5.25;;;;;6.94;76.43;104379.38;5031001;28;10865;-71
2022/03/19 03:56:38;;;;;;;;;5.75;4.00;;;;;7.00;76.15;104392.56;5030809;28;10965;-72
2022/03/19 03:59:05;;;;;;;;;4.00;3.00;;;;;6.99;76.33;104386.31;5069491;28;11619;-72
2022/03/19 04:01:31;;;;;;;;;7.00;4.50;;;;;6.89;76.79;104386.84;5070139;28;10969;-71
2022/03/19 04:03:58;;;;;;;;;7.00;3.50;;;;;6.92;77.16;104384.84;5067333;28;11115;-70
2022/03/19 04:06:24;;;;;;;;;2.00;2.00;;;;;6.90;76.92;104380.50;5050713;28;11706;-71
2022/03/19 04:08:51;;;;;;;;;4.75;4.00;;;;;6.87;77.68;104391.44;5049795;28;10895;-71
2022/03/19 04:11:17;;;;;;;;;5.25;5.25;;;;;6.75;78.09;104391.13;5050410;28;10876;-71
2022/03/19 04:13:43;;;;;;;;;5.50;4.00;;;;;6.66;79.16;104388.88;5065664;28;11122;-71
2022/03/19 04:16:10;;;;;;;;;4.00;4.00;;;;;6.82;78.92;104397.06;5070561;28;10924;-69
2022/03/19 04:18:36;;;;;;;;;5.50;1.75;;;;;6.71;78.86;104385.97;5054784;28;10986;-70
2022/03/19 04:21:03;;;;;;;;;9.50;6.00;;;;;6.61;79.37;104380.16;5049895;28;11264;-71
2022/03/19 04:23:29;;;;;;;;;11.00;5.75;;;;;6.65;78.81;104380.88;5064580;28;11100;-72
2022/03/19 04:25:56;;;;;;;;;6.00;5.00;;;;;6.72;79.02;104382.31;5070168;28;11026;-72
2022/03/19 04:28:22;;;;;;;;;7.75;7.25;;;;;6.51;79.01;104380.69;5056599;28;11068;-72
2022/03/19 04:30:49;;;;;;;;;6.00;6.00;;;;;6.61;79.77;104385.53;5050122;28;11429;-70
2022/03/19 04:33:20;;;;;;;;;5.25;5.00;;;;;6.57;80.29;104383.06;5062272;28;11322;-71
2022/03/19 04:38:32;;;;;;;;;6.25;6.00;;;;;6.57;79.72;104381.25;5055387;28;11890;-71
2022/03/19 04:40:59;;;;;;;;;7.50;4.50;;;;;6.51;80.41;104380.69;5049760;28;12142;-71
2022/03/19 04:43:26;;;;;;;;;12.00;7.50;;;;;6.45;80.47;104376.50;5064026;28;11163;-72
2022/03/19 04:45:52;;;;;;;;;9.00;7.00;;;;;6.50;81.33;104374.44;5070051;28;11236;-72
2022/03/19 04:48:19;;;;;;;;;5.50;4.00;;;;;6.37;81.21;104367.91;5056732;28;11162;-72
2022/03/19 04:50:47;;;;;;;;;3.75;3.75;;;;;6.41;80.85;104366.78;5050215;28;11031;-72
2022/03/19 04:53:14;;;;;;;;;6.50;6.50;;;;;6.32;80.97;104372.63;5060536;28;11056;-72
2022/03/19 04:55:40;;;;;;;;;6.75;4.00;;;;;6.32;81.17;104368.13;5070015;28;11003;-72
2022/03/19 04:58:08;;;;;;;;;5.25;5.25;;;;;6.49;81.24;104370.00;5058394;28;11229;-71
2022/03/19 05:00:35;;;;;;;;;8.00;6.00;;;;;6.30;81.64;104370.03;5049774;28;11263;-71
2022/03/19 05:03:04;;;;;;;;;6.75;6.75;;;;;6.26;82.13;104368.44;5058554;28;11086;-71
2022/03/19 05:05:31;;;;;;;;;9.50;9.00;;;;;6.15;82.66;104359.97;5085424;28;11233;-71
2022/03/19 05:07:58;;;;;;;;;9.00;8.00;;;;;6.07;83.45;104362.19;5075070;28;11564;-70
2022/03/19 05:13:10;;;;;;;;;12.00;9.25;;;;;6.18;83.64;104366.09;5076624;28;11475;-72
2022/03/19 05:15:37;;;;;;;;;5.25;5.00;;;;;6.13;84.24;104367.25;5070116;28;11397;-70
2022/03/19 05:18:04;;;;;;;;;10.00;10.00;;;;;6.09;84.47;104362.97;5058808;28;11451;-70
2022/03/19 05:20:34;;;;;;;;;11.00;9.00;;;;;6.03;84.88;104368.66;5048543;28;11412;-71
2022/03/19 05:23:01;;;;;;;;;9.00;6.75;;;;;6.08;84.88;104358.53;5058516;28;11489;-71
2022/03/19 05:25:27;;;;;;;;;7.00;7.00;;;;;6.12;84.79;104365.50;5072995;28;11943;-71
2022/03/19 05:27:53;;;;;;;;;12.50;11.25;;;;;6.17;84.29;104363.47;5063894;28;11556;-71
2022/03/19 05:30:20;;;;;;;;;12.50;7.00;;;;;6.21;84.19;104362.41;5053612;28;11492;-71
2022/03/19 05:32:47;;;;;;;;;14.75;8.50;;;;;6.16;83.69;104359.03;5061482;28;11541;-70
2022/03/19 05:35:15;;;;;;;;;13.00;10.50;;;;;6.09;84.32;104358.47;5089027;28;11440;-72
2022/03/19 05:37:41;;;;;;;;;12.00;9.00;;;;;6.13;84.99;104356.50;5065418;28;11443;-71
2022/03/19 05:40:09;;;;;;;;;11.00;10.75;;;;;6.15;84.38;104358.16;5053338;28;11430;-71
2022/03/19 05:42:35;;;;;;;;;8.00;8.00;;;;;6.09;84.36;104366.53;5059834;28;11413;-70
2022/03/19 05:45:02;;;;;;;;;13.00;11.25;;;;;6.14;84.53;104363.63;5073324;28;11406;-70
2022/03/19 05:47:29;;;;;;;;;11.00;9.75;;;;;6.19;84.38;104361.56;5062321;28;11468;-70
2022/03/19 05:49:55;;;;;;;;;6.00;6.00;;;;;6.27;84.11;104374.69;5033694;28;11494;-71
2022/03/19 05:52:22;;;;;;;;;13.25;13.25;;;;;6.16;83.98;104367.97;5045206;28;11411;-71
2022/03/19 05:54:48;;;;;;;;;11.75;10.00;;;;;6.14;84.24;104375.25;5075455;28;11441;-71
2022/03/19 05:57:15;;;;;;;;;9.25;8.25;;;;;6.15;84.00;104376.13;5068876;28;11436;-69
2022/03/19 05:59:41;;;;;;;;;11.50;10.75;;;;;6.09;84.63;104371.91;5055064;28;11572;-71
2022/03/19 06:02:08;;;;;;;;;12.50;9.00;;;;;6.29;84.06;104373.66;5057427;28;11471;-71
2022/03/19 06:04:35;;;;;;;;;12.50;9.25;;;;;6.25;83.41;104374.75;5074401;28;11462;-71
2022/03/19 06:07:02;;;;;;;;;13.25;10.50;;;;;6.34;83.46;104377.00;5070488;28;11563;-71
2022/03/19 06:09:29;;;;;;;;;6.75;6.25;;;;;6.43;83.49;104375.66;5052988;28;12273;-72
2022/03/19 06:11:56;;;;;;;;;17.50;12.75;;;;;6.45;82.30;104379.19;5069163;28;11430;-70
2022/03/19 06:14:23;;;;;;;;;12.75;10.25;;;;;6.58;82.29;104374.06;5073364;28;11460;-70
2022/03/19 06:16:50;;;;;;;;;15.00;13.75;;;;;7.14;79.12;104371.16;5074425;28;11364;-70
2022/03/19 06:19:17;;;;;;;;;11.25;11.25;;;;;7.81;77.68;104364.00;5054842;28;11463;-71
2022/03/19 06:21:44;;;;;;;;;15.50;12.50;;;;;8.20;76.45;104372.59;5052956;28;11467;-70
2022/03/19 06:24:15;;;;;;;;;13.25;11.50;;;;;7.88;74.21;104374.34;5071398;28;11445;-72
2022/03/19 06:26:42;;;;;;;;;14.25;11.75;;;;;8.00;75.05;104375.53;5072510;28;11446;-71
2022/03/19 06:29:08;;;;;;;;;14.00;11.25;;;;;8.45;74.01;104382.88;5071896;28;11501;-71
2022/03/19 06:31:35;;;;;;;;;13.50;11.00;;;;;8.44;73.04;104385.69;5089102;28;11188;-71
2022/03/19 06:34:02;;;;;;;;;12.50;11.00;;;;;8.60;72.73;104379.28;5053474;28;11460;-71
2022/03/19 06:39:14;;;;;;;;;15.00;8.50;;;;;8.83;69.21;104383.34;5052451;28;10978;-71
2022/03/19 06:41:41;;;;;;;;;13.50;11.00;;;;;9.37;69.29;104378.28;5052079;28;11187;-70
2022/03/19 06:44:08;;;;;;;;;12.75;12.50;;;;;9.15;67.07;104375.13;5052806;28;11844;-71
2022/03/19 06:46:34;;;;;;;;;12.75;10.00;;;;;9.25;67.80;104385.31;5050907;28;11166;-72
2022/03/19 06:49:01;;;;;;;;;10.00;10.00;;;;;9.70;66.63;104388.00;5069401;28;11085;-71
2022/03/19 06:51:27;;;;;;;;;10.75;7.25;;;;;9.70;66.63;104380.75;5071862;28;11006;-72
2022/03/19 06:53:54;;;;;;;;;9.00;6.75;;;;;10.26;64.08;104388.94;5049486;28;10788;-72
2022/03/19 06:56:20;;;;;;;;;13.75;12.00;;;;;9.68;63.15;104384.50;5032044;28;11359;-70
2022/03/19 06:58:49;;;;;;;;;9.75;9.75;;;;;8.76;67.04;104384.66;5066343;28;10847;-71
2022/03/19 07:01:15;;;;;;;;;9.00;7.75;;;;;8.69;68.50;104388.69;5071388;28;10708;-72
2022/03/19 07:03:45;;;;;;;;;13.00;10.25;;;;;8.22;68.17;104392.25;5055261;28;10740;-71
2022/03/19 07:06:12;;;;;;;;;8.00;8.00;;;;;8.32;69.31;104387.19;5051933;28;10900;-71
2022/03/19 07:08:58;;;;;;;;;10.00;9.50;;;;;8.25;68.43;104385.81;5070301;28;10840;-72
2022/03/19 07:11:25;;;;;;;;;9.25;6.25;;;;;8.34;68.64;104379.91;5071514;28;10731;-71
2022/03/19 07:13:51;;;;;;;;;9.25;8.75;;;;;8.67;67.40;104382.50;5053821;28;10764;-71
2022/03/19 07:16:18;;;;;;;;;10.50;9.00;;;;;8.66;66.60;104380.75;5051691;28;10874;-71
2022/03/19 07:18:44;;;;;;;;;9.00;8.25;;;;;8.75;66.12;104380.22;5068295;28;10973;-72
2022/03/19 07:21:12;;;;;;;;;10.25;4.25;;;;;8.94;64.41;104378.19;5071311;28;10797;-71
2022/03/19 07:23:38;;;;;;;;;8.00;6.00;;;;;8.95;64.19;104376.34;5055950;28;10772;-72
2022/03/19 07:26:06;;;;;;;;;7.50;7.50;;;;;8.76;62.87;104384.66;5051672;28;10729;-71
2022/03/19 07:28:32;;;;;;;;;10.00;8.50;;;;;9.16;63.33;104377.75;5065919;28;10646;-71
2022/03/19 07:31:00;;;;;;;;;7.75;7.75;;;;;8.91;62.34;104374.78;5071062;28;10654;-71
2022/03/19 07:33:27;;;;;;;;;6.00;6.00;;;;;9.06;61.65;104376.56;5057444;28;10654;-69
2022/03/19 07:35:54;;;;;;;;;5.00;4.75;;;;;9.42;60.13;104383.41;5049939;28;10735;-70
2022/03/19 07:38:20;;;;;;;;;8.50;8.50;;;;;9.41;60.05;104371.69;5064251;28;10690;-69
2022/03/19 07:43:32;;;;;;;;;5.50;4.50;;;;;9.35;58.29;104368.50;5056029;28;10640;-70
2022/03/19 07:45:58;;;;;;;;;6.25;6.00;;;;;9.48;57.24;104372.22;5051084;28;10697;-69
2022/03/19 07:48:25;;;;;;;;;4.50;3.50;;;;;9.57;56.56;104383.31;5064371;28;10825;-68
2022/03/19 07:50:54;;;;;;;;;4.75;3.50;;;;;9.49;56.53;104374.81;5085980;28;10558;-69
2022/03/19 07:53:21;;;;;;;;;7.00;6.25;;;;;9.21;56.83;104372.94;5057271;28;10404;-69
2022/03/19 07:55:50;;;;;;;;;7.00;6.50;;;;;9.34;57.09;104369.47;5051053;28;10647;-69
2022/03/19 07:58:17;;;;;;;;;5.50;5.00;;;;;9.20;57.76;104370.34;5063239;28;10641;-70
2022/03/19 08:00:43;;;;;;;;;6.50;6.50;;;;;9.53;57.03;104372.78;5070800;28;10414;-67
2022/03/19 08:03:10;;;;;;;;;4.25;4.25;;;;;9.61;56.62;104365.06;5058256;28;10681;-68
2022/03/19 08:05:40;;;;;;;;;8.75;7.00;;;;;9.80;55.79;104368.34;5050543;28;10588;-68
2022/03/19 08:08:06;;;;;;;;;7.00;6.00;;;;;10.04;56.03;104376.75;5061652;28;10701;-68
2022/03/19 08:10:36;;;;;;;;;3.75;3.75;;;;;10.30;54.54;104372.38;5086080;28;10440;-69
2022/03/19 08:13:05;;;;;;;;;5.00;5.00;;;;;10.17;54.34;104366.00;5059208;28;10519;-69
2022/03/19 08:15:32;;;;;;;;;5.00;5.00;;;;;10.47;54.44;104364.00;5065802;28;10377;-69
2022/03/19 08:17:59;;;;;;;;;10.00;8.00;;;;;10.05;54.24;104381.19;5060567;28;10373;-71
2022/03/19 08:20:27;;;;;;;;;13.00;9.00;;;;;9.84;55.85;104377.13;5070283;28;11224;-68
2022/03/19 08:22:55;;;;;;;;;8.25;6.00;;;;;10.59;54.16;104369.56;5059100;28;10589;-69
2022/03/19 08:25:22;;;;;;;;;5.00;5.00;;;;;10.29;53.98;104378.75;5050451;28;10641;-70
2022/03/19 08:27:50;;;;;;;;;7.50;7.00;;;;;10.74;54.62;104382.97;5059682;28;10314;-70
2022/03/19 08:30:18;;;;;;;;;11.25;9.75;;;;;10.54;53.42;104383.44;5070736;28;11223;-68
2022/03/19 08:32:45;;;;;;;;;8.25;6.25;;;;;10.74;53.72;104382.09;5061630;28;10544;-69
2022/03/19 08:35:11;;;;;;;;;5.25;3.50;;;;;11.36;52.40;104371.47;5050511;28;11217;-68
2022/03/19 08:37:43;;;;;;;;;7.00;5.75;;;;;11.52;52.25;104380.28;5050105;28;11004;-69
2022/03/19 08:40:16;;;;;;;;;5.25;4.50;;;;;11.58;52.28;104379.84;5050043;28;10348;-68
2022/03/19 08:42:44;;;;;;;;;9.50;8.00;;;;;11.12;53.43;104378.63;5057156;28;10278;-69
2022/03/19 08:45:11;;;;;;;;;6.25;6.25;;;;;11.37;53.46;104374.09;5085611;28;10375;-68
2022/03/19 08:47:37;;;;;;;;;11.25;7.00;;;;;11.71;51.35;104360.84;5062433;28;10153;-68
2022/03/19 08:50:05;;;;;;;;;6.50;4.25;;;;;11.93;51.69;104371.06;5065658;28;11067;-69
2022/03/19 08:52:33;;;;;;;;;6.00;5.50;;;;;12.17;50.75;104368.41;5050312;28;10321;-67
2022/03/19 08:55:01;;;;;;;;;10.75;10.75;;;;;12.43;49.74;104361.03;5049081;28;10213;-69
2022/03/19 08:57:27;;;;;;;;;9.50;9.00;;;;;12.47;49.79;104362.53;5054603;28;10363;-70
2022/03/19 08:59:54;;;;;;;;;8.00;6.50;;;;;12.83;48.74;104361.59;5072834;28;10141;-69
2022/03/19 09:02:38;;;;;;;;;6.50;4.25;;;;;13.11;48.72;104365.75;5066336;28;10037;-69
2022/03/19 09:05:05;;;;;;;;;5.00;5.00;;;;;12.61;48.17;104355.06;5054052;28;10002;-69
2022/03/19 09:07:31;;;;;;;;;7.00;6.25;;;;;12.66;48.94;104362.03;5060319;28;9906;-70
2022/03/19 09:09:57;;;;;;;;;7.00;7.00;;;;;12.75;47.85;104362.19;5073132;28;10152;-70
2022/03/19 09:12:32;;;;;;;;;7.50;7.50;;;;;12.67;48.31;104353.75;5081750;28;10140;-69
2022/03/19 09:14:59;;;;;;;;;7.75;4.00;;;;;12.84;47.84;104364.19;5053997;28;10119;-71
2022/03/19 09:17:26;;;;;;;;;5.50;5.00;;;;;13.05;46.64;104350.78;5060070;28;10017;-68
2022/03/19 09:19:52;;;;;;;;;7.00;5.75;;;;;12.94;45.25;104354.34;5090097;28;10113;-69
2022/03/19 09:22:18;;;;;;;;;6.25;5.75;;;;;13.28;45.15;104350.88;5087507;28;10493;-69
2022/03/19 09:24:45;;;;;;;;;1.00;1.00;;;;;13.58;45.39;104333.97;5089337;28;10061;-70
2022/03/19 09:27:12;;;;;;;;;5.75;5.75;;;;;12.99;43.35;104337.69;5069740;28;9575;-70
2022/03/19 09:29:38;;;;;;;;;8.75;5.00;;;;;12.98;43.93;104348.69;5051990;28;10690;-68
2022/03/19 09:32:07;;;;;;;;;4.50;4.25;;;;;13.00;43.75;104343.97;5055916;28;9884;-69
2022/03/19 09:34:33;;;;;;;;;4.00;4.00;;;;;12.69;42.99;104334.59;5073681;28;9840;-72
2022/03/19 09:36:59;;;;;;;;;3.25;3.25;;;;;12.90;41.91;104341.13;5071307;28;9895;-70
2022/03/19 09:39:26;;;;;;;;;6.00;5.00;;;;;12.35;43.74;104337.13;5052241;28;9826;-69
2022/03/19 09:41:54;;;;;;;;;5.00;3.50;;;;;12.84;43.39;104328.84;5069259;28;10128;-70
2022/03/19 09:44:27;;;;;;;;;5.50;3.75;;;;;13.21;41.36;104324.16;5053856;28;10039;-69
2022/03/19 09:46:54;;;;;;;;;4.25;4.00;;;;;13.05;40.92;104329.03;5054485;28;9912;-70
2022/03/19 09:49:20;;;;;;;;;3.50;3.50;;;;;13.07;41.19;104315.31;5073378;28;9663;-71
2022/03/19 09:51:53;;;;;;;;;4.00;4.00;;;;;13.07;41.89;104312.59;5072688;28;9845;-70
2022/03/19 09:54:23;;;;;;;;;5.75;5.75;;;;;13.43;41.06;104303.41;5053860;28;9828;-69
2022/03/19 09:56:50;;;;;;;;;4.75;4.75;;;;;13.40;40.80;104307.25;5054307;28;9831;-69
2022/03/19 09:59:17;;;;;;;;;4.00;4.00;;;;;13.33;41.28;104305.13;5074011;28;9945;-70
2022/03/19 10:01:47;;;;;;;;;5.50;5.00;;;;;13.19;40.91;104304.38;5073614;28;9794;-70
2022/03/19 10:04:17;;;;;;;;;6.50;4.00;;;;;13.54;40.07;104298.81;5034071;28;9777;-68
2022/03/19 10:09:47;;;;;;;;;2.00;2.00;;;;;13.59;39.51;104292.13;5033279;28;9758;-69
2022/03/19 10:12:22;;;;;;;;;4.00;4.00;;;;;13.92;39.54;104291.25;5041919;28;9759;-67
2022/03/19 10:14:56;;;;;;;;;2.00;2.00;;;;;13.90;38.48;104280.47;5073559;28;10316;-70
2022/03/19 10:17:34;;;;;;;;;2.50;1.75;;;;;13.79;37.73;104278.63;5065439;28;9582;-69
2022/03/19 10:20:11;;;;;;;;;1.75;1.75;;;;;13.97;37.34;104278.09;5073368;28;9610;-69
2022/03/19 10:22:44;;;;;;;;;2.50;2.50;;;;;13.66;36.86;104272.47;5065607;28;9698;-70
2022/03/19 10:25:13;;;;;;;;;3.00;3.00;;;;;13.67;36.30;104262.44;5053717;28;10175;-72
2022/03/19 10:27:42;;;;;;;;;1.25;1.25;;;;;13.81;35.89;104262.16;5060979;28;9580;-69
2022/03/19 10:30:19;;;;;;;;;2.00;2.00;;;;;14.33;35.32;104258.66;5072747;28;10370;-71
2022/03/19 10:32:48;;;;;;;;;1.50;1.00;;;;;14.09;33.38;104250.69;5063450;28;9590;-70
2022/03/19 10:35:25;;;;;;;;;2.00;2.00;;;;;13.88;33.30;104246.16;5052624;28;9599;-69
2022/03/19 10:37:52;;;;;;;;;1.00;1.00;;;;;14.08;33.38;104248.09;5076607;28;9577;-69
2022/03/19 10:40:20;;;;;;;;;3.00;2.75;;;;;14.02;32.86;104237.72;5072380;28;9548;-68
2022/03/19 10:42:50;;;;;;;;;0.25;0.25;;;;;13.97;32.58;104240.84;5063277;28;9530;-69
2022/03/19 10:45:22;;;;;;;;;3.00;3.00;;;;;13.93;32.34;104228.47;5067581;28;9527;-71
2022/03/19 10:47:49;;;;;;;;;2.00;2.00;;;;;13.98;31.73;104234.38;5060619;28;9731;-69
2022/03/19 10:50:23;;;;;;;;;3.00;1.50;;;;;13.82;31.36;104229.34;5071903;28;9572;-70
2022/03/19 10:52:52;;;;;;;;;2.75;2.00;;;;;13.91;32.89;104226.88;5062748;28;9375;-71
2022/03/19 10:55:20;;;;;;;;;1.00;1.00;;;;;14.31;32.59;104217.03;5067450;28;9679;-67
2022/03/19 10:57:46;;;;;;;;;3.00;1.25;;;;;14.43;32.16;104212.44;5075701;28;9592;-68
2022/03/19 11:00:13;;;;;;;;;3.00;2.00;;;;;13.98;31.76;104217.19;5070646;28;9648;-69
2022/03/19 11:02:45;;;;;;;;;1.50;1.50;;;;;13.99;31.08;104213.47;5062365;28;9533;-72
2022/03/19 11:05:17;;;;;;;;;3.00;3.00;;;;;14.33;30.93;104195.97;5050584;28;9458;-69
2022/03/19 11:07:44;;;;;;;;;1.00;1.00;;;;;14.24;30.08;104201.34;5059908;28;9569;-70
2022/03/19 11:10:11;;;;;;;;;1.00;0.00;;;;;14.35;31.32;104196.69;5071703;28;9457;-69
2022/03/19 11:12:52;;;;;;;;;1.75;1.00;;;;;14.22;31.23;104192.44;5064006;28;9454;-70
2022/03/19 11:15:22;;;;;;;;;2.50;1.00;;;;;14.25;31.41;104192.19;5066851;28;9579;-70
2022/03/19 11:17:51;;;;;;;;;2.00;2.00;;;;;14.05;31.00;104186.56;5059104;28;10288;-70
2022/03/19 11:20:18;;;;;;;;;3.00;2.00;;;;;14.22;31.13;104182.41;5071597;28;9693;-69
2022/03/19 11:22:52;;;;;;;;;2.75;2.75;;;;;14.33;31.08;104184.19;5061659;28;9451;-69
2022/03/19 11:25:31;;;;;;;;;1.00;0.33;;;;;14.28;31.64;104175.56;5051638;28;9378;-70
2022/03/19 11:28:01;;;;;;;;;1.50;1.50;;;;;14.30;30.53;104179.00;5061100;28;9219;-69
2022/03/19 11:30:30;;;;;;;;;4.00;1.00;;;;;14.62;30.39;104165.34;5071304;28;9459;-70
2022/03/19 11:33:05;;;;;;;;;2.67;2.00;;;;;14.63;30.26;104167.09;5060531;28;9359;-69
2022/03/19 11:35:38;;;;;;;;;2.00;1.00;;;;;14.23;30.17;104167.78;5066650;28;10101;-68
2022/03/19 11:38:11;;;;;;;;;2.00;1.00;;;;;14.27;30.35;104169.25;5077765;28;9514;-71
2022/03/19 11:40:45;;;;;;;;;1.00;1.00;;;;;14.34;31.37;104151.34;5070995;28;9239;-68
2022/03/19 11:43:27;;;;;;;;;2.00;2.00;;;;;14.37;30.72;104147.50;5058399;28;9924;-69
2022/03/19 11:46:06;;;;;;;;;2.33;1.00;;;;;14.29;30.59;104150.03;5051123;28;9425;-69
2022/03/19 11:48:35;;;;;;;;;1.75;1.75;;;;;14.29;30.05;104141.84;5065849;28;9272;-69